createdAt,value
2023-01-28T00:00:15.804Z,134.32
2023-01-28T00:02:46.486Z,141.63
2023-01-28T00:05:16.483Z,125.97
2023-01-28T00:07:46.321Z,120.82
2023-01-28T00:10:17.942Z,116.80
2023-01-28T00:12:48.811Z,111.70
2023-01-28T00:15:17.045Z,118.57
2023-01-28T00:17:45.593Z,123.38
2023-01-28T00:20:14.411Z,137.82
2023-01-28T00:22:52.027Z,132.55
2023-01-28T00:25:22.059Z,145.23
2023-01-28T00:27:51.103Z,143.73
2023-01-28T00:30:20.770Z,137.77
2023-01-28T00:32:50.162Z,144.63
2023-01-28T00:35:21.328Z,142.35
2023-01-28T00:37:51.804Z,146.40
2023-01-28T00:40:22.488Z,147.05
2023-01-28T00:42:53.032Z,149.55
2023-01-28T00:45:22.449Z,145.93
2023-01-28T00:47:52.080Z,149.82
2023-01-28T00:50:21.807Z,142.45
2023-01-28T00:52:52.366Z,144.13
2023-01-28T00:55:21.917Z,143.68
2023-01-28T00:57:52.189Z,146.02
2023-01-28T01:00:21.781Z,145.10
2023-01-28T01:02:50.466Z,134.95
2023-01-28T01:05:18.718Z,146.65
2023-01-28T01:07:47.240Z,141.30
2023-01-28T01:10:20.640Z,143.68
2023-01-28T01:12:53.285Z,138.18
2023-01-28T01:15:21.577Z,134.70
2023-01-28T01:17:52.986Z,140.07
2023-01-28T01:20:25.590Z,147.70
2023-01-28T01:22:55.604Z,138.85
2023-01-28T01:25:25.244Z,137.43
2023-01-28T01:27:54.915Z,140.13
2023-01-28T01:30:23.180Z,135.65
2023-01-28T01:32:52.777Z,142.10
2023-01-28T01:35:20.884Z,130.75
2023-01-28T01:37:50.261Z,134.15
2023-01-28T01:40:18.916Z,145.18
2023-01-28T01:42:47.040Z,145.00
2023-01-28T01:45:17.924Z,142.68
2023-01-28T01:47:51.893Z,144.65
2023-01-28T01:50:26.881Z,144.00
2023-01-28T01:53:01.959Z,145.40
2023-01-28T01:55:37.931Z,143.98
2023-01-28T01:58:14.095Z,138.80
2023-01-28T02:00:44.130Z,142.82
2023-01-28T02:03:13.835Z,140.15
2023-01-28T02:05:42.234Z,137.27
2023-01-28T02:08:25.624Z,139.00
2023-01-28T02:11:00.168Z,146.65
2023-01-28T02:13:33.754Z,146.25
2023-01-28T02:16:05.569Z,146.68
2023-01-28T02:18:35.459Z,146.40
2023-01-28T02:21:50.710Z,147.65
2023-01-28T02:24:36.926Z,146.40
2023-01-28T02:27:22.421Z,150.25
2023-01-28T02:30:01.055Z,145.63
2023-01-28T02:32:42.494Z,149.68
2023-01-28T02:35:19.293Z,142.00
2023-01-28T02:37:57.364Z,140.77
2023-01-28T02:40:32.407Z,137.60
2023-01-28T02:43:02.923Z,139.10
2023-01-28T02:45:50.136Z,144.30
2023-01-28T02:48:21.436Z,138.88
2023-01-28T02:50:56.734Z,139.55
2023-01-28T02:53:44.389Z,144.27
2023-01-28T02:56:29.390Z,140.32
2023-01-28T02:59:26.878Z,140.05
2023-01-28T03:02:10.822Z,137.95
2023-01-28T03:04:46.383Z,139.68
2023-01-28T03:07:18.079Z,140.68
2023-01-28T03:09:48.683Z,141.98
2023-01-28T03:12:41.848Z,139.65
2023-01-28T03:15:33.889Z,139.90
2023-01-28T03:18:28.967Z,140.55
2023-01-28T03:21:24.678Z,137.05
2023-01-28T03:24:19.194Z,137.77
2023-01-28T03:27:21.039Z,139.32
2023-01-28T03:30:18.638Z,141.20
2023-01-28T03:33:06.968Z,142.15
2023-01-28T03:35:56.935Z,140.63
2023-01-28T03:38:35.417Z,143.25
2023-01-28T03:41:05.470Z,140.70
2023-01-28T03:43:35.098Z,137.20
2023-01-28T03:46:03.999Z,139.23
2023-01-28T03:48:33.766Z,139.98
2023-01-28T03:51:07.167Z,141.10
2023-01-28T03:53:37.842Z,140.25
2023-01-28T03:56:06.331Z,139.20
2023-01-28T03:58:52.727Z,140.52
2023-01-28T04:01:21.703Z,140.82
2023-01-28T04:03:51.247Z,141.70
2023-01-28T04:06:28.941Z,139.88
2023-01-28T04:09:18.573Z,139.68
2023-01-28T04:12:05.834Z,140.18
2023-01-28T04:14:41.901Z,140.65
2023-01-28T04:17:15.340Z,140.35
2023-01-28T04:19:48.377Z,140.27
2023-01-28T04:22:20.087Z,145.35
2023-01-28T04:24:49.772Z,139.27
2023-01-28T04:27:20.188Z,142.35
2023-01-28T04:29:49.968Z,142.80
2023-01-28T04:32:36.546Z,144.32
2023-01-28T04:35:18.399Z,152.30
2023-01-28T04:38:23.081Z,152.38
2023-01-28T04:41:03.854Z,153.82
2023-01-28T04:43:35.827Z,144.00
2023-01-28T04:46:34.590Z,143.18
2023-01-28T04:49:28.269Z,148.65
2023-01-28T04:52:16.414Z,141.93
2023-01-28T04:55:01.184Z,146.30
2023-01-28T04:57:31.349Z,148.30
2023-01-28T05:00:01.157Z,146.82
2023-01-28T05:02:31.674Z,147.40
2023-01-28T05:05:01.701Z,146.05
2023-01-28T05:07:43.048Z,146.32
2023-01-28T05:10:13.824Z,150.05
2023-01-28T05:12:44.998Z,151.63
2023-01-28T05:15:14.991Z,149.55
2023-01-28T05:17:44.260Z,148.48
2023-01-28T05:20:15.948Z,140.18
2023-01-28T05:22:47.763Z,148.25
2023-01-28T05:25:22.422Z,146.10
2023-01-28T05:27:55.019Z,147.13
2023-01-28T05:30:23.634Z,144.05
2023-01-28T05:32:58.239Z,148.23
2023-01-28T05:35:27.549Z,143.60
2023-01-28T05:37:58.157Z,148.50
2023-01-28T05:40:31.995Z,146.73
2023-01-28T05:43:02.811Z,145.50
2023-01-28T05:45:38.569Z,148.70
2023-01-28T05:48:14.194Z,147.85
2023-01-28T05:50:50.097Z,152.20
2023-01-28T05:53:32.158Z,153.85
2023-01-28T05:56:01.683Z,154.43
2023-01-28T05:58:33.521Z,153.10
2023-01-28T06:01:04.731Z,151.65
2023-01-28T06:03:43.699Z,151.38
2023-01-28T06:06:13.648Z,145.77
2023-01-28T06:08:42.464Z,148.75
2023-01-28T06:11:13.535Z,145.57
2023-01-28T06:16:32.045Z,147.73
2023-01-28T06:19:24.467Z,142.82
2023-01-28T06:21:52.561Z,146.38
2023-01-28T06:24:22.857Z,146.55
2023-01-28T06:26:53.570Z,147.93
2023-01-28T06:29:22.091Z,143.10
2023-01-28T06:31:51.760Z,141.15
2023-01-28T06:34:22.491Z,148.13
2023-01-28T06:36:53.206Z,141.98
2023-01-28T06:39:23.405Z,145.65
2023-01-28T06:41:52.988Z,146.18
2023-01-28T06:44:22.271Z,145.65
2023-01-28T06:46:51.851Z,146.73
2023-01-28T06:49:22.018Z,145.88
2023-01-28T06:51:50.675Z,146.38
2023-01-28T06:54:19.974Z,148.32
2023-01-28T06:56:50.361Z,147.65
2023-01-28T06:59:19.967Z,147.77
2023-01-28T07:01:48.129Z,147.70
2023-01-28T07:04:17.712Z,147.70
2023-01-28T07:06:47.476Z,151.00
2023-01-28T07:09:16.787Z,142.63
2023-01-28T07:11:46.615Z,147.50
2023-01-28T07:14:16.187Z,146.45
2023-01-28T07:16:47.205Z,146.27
2023-01-28T07:19:19.622Z,146.35
2023-01-28T07:21:47.834Z,144.90
2023-01-28T07:24:17.212Z,142.85
2023-01-28T07:26:45.414Z,144.65
2023-01-28T07:29:15.946Z,146.32
2023-01-28T07:31:46.959Z,145.88
2023-01-28T07:34:17.115Z,150.10
2023-01-28T07:36:46.826Z,146.40
2023-01-28T07:39:16.135Z,147.45
2023-01-28T07:41:44.728Z,146.82
2023-01-28T07:44:31.886Z,148.27
2023-01-28T07:47:02.527Z,149.02
2023-01-28T07:49:33.776Z,147.65
2023-01-28T07:52:03.380Z,148.73
2023-01-28T07:54:33.901Z,147.82
2023-01-28T07:57:06.143Z,149.13
2023-01-28T08:02:06.284Z,148.52
2023-01-28T08:04:35.686Z,147.70
2023-01-28T08:07:07.180Z,150.27
2023-01-28T08:09:38.698Z,147.20
2023-01-28T08:12:08.440Z,147.20
2023-01-28T08:14:39.097Z,147.30
2023-01-28T08:17:09.818Z,148.38
2023-01-28T08:19:39.246Z,147.93
2023-01-28T08:22:08.814Z,147.27
2023-01-28T08:24:39.404Z,144.77
2023-01-28T08:27:07.970Z,142.18
2023-01-28T08:29:38.451Z,146.30
2023-01-28T08:32:06.766Z,148.57
2023-01-28T08:34:37.640Z,151.07
2023-01-28T08:37:07.232Z,146.95
2023-01-28T08:39:37.779Z,148.00
2023-01-28T08:42:08.352Z,146.93
2023-01-28T08:44:37.734Z,143.88
2023-01-28T08:47:05.929Z,146.57
2023-01-28T08:49:35.613Z,143.40
2023-01-28T08:52:05.877Z,145.05
2023-01-28T08:54:36.536Z,145.70
2023-01-28T08:57:06.203Z,146.65
2023-01-28T08:59:35.536Z,145.35
2023-01-28T09:02:04.845Z,148.00
2023-01-28T09:04:33.620Z,149.85
2023-01-28T09:07:02.009Z,148.43
2023-01-28T09:09:33.453Z,152.23
2023-01-28T09:12:03.547Z,151.88
2023-01-28T09:14:33.386Z,152.13
2023-01-28T09:17:01.578Z,148.85
2023-01-28T09:19:30.415Z,148.02
2023-01-28T09:21:59.726Z,147.10
2023-01-28T09:24:32.192Z,147.00
2023-01-28T09:27:00.342Z,148.07
2023-01-28T09:29:30.999Z,146.70
2023-01-28T09:32:00.682Z,147.48
2023-01-28T09:34:30.361Z,147.57
2023-01-28T09:36:58.482Z,140.68
2023-01-28T09:39:29.663Z,140.77
2023-01-28T09:42:28.925Z,140.43
2023-01-28T09:45:12.236Z,140.63
2023-01-28T09:47:45.267Z,140.82
2023-01-28T09:50:21.593Z,141.93
2023-01-28T09:52:49.820Z,142.98
2023-01-28T09:55:32.409Z,142.25
2023-01-28T09:58:02.022Z,144.27
2023-01-28T10:00:39.960Z,143.68
2023-01-28T10:03:44.950Z,145.85
2023-01-28T10:06:27.190Z,144.25
2023-01-28T10:09:20.498Z,144.70
2023-01-28T10:12:05.243Z,149.77
2023-01-28T10:14:57.385Z,149.75
2023-01-28T10:17:32.250Z,151.88
2023-01-28T10:20:07.678Z,152.05
2023-01-28T10:22:40.562Z,149.43
2023-01-28T10:25:19.161Z,147.68
2023-01-28T10:27:49.927Z,156.43
2023-01-28T10:30:25.414Z,147.90
2023-01-28T10:33:00.591Z,145.10
2023-01-28T10:35:31.296Z,150.63
2023-01-28T10:38:07.502Z,151.32
2023-01-28T10:40:37.863Z,147.23
2023-01-28T10:43:06.079Z,150.60
2023-01-28T10:45:43.697Z,150.20
2023-01-28T10:48:22.296Z,147.90
2023-01-28T10:50:58.130Z,148.88
2023-01-28T10:53:40.034Z,148.60
2023-01-28T10:56:13.116Z,150.52
2023-01-28T10:58:59.885Z,153.93
2023-01-28T11:01:45.534Z,148.40
2023-01-28T11:04:21.168Z,147.50
2023-01-28T11:06:56.186Z,149.70
2023-01-28T11:09:30.825Z,155.10
2023-01-28T11:12:11.693Z,156.30
2023-01-28T11:14:51.414Z,153.65
2023-01-28T11:17:25.733Z,152.75
2023-01-28T11:19:56.625Z,153.05
2023-01-28T11:22:33.985Z,151.85
2023-01-28T11:25:04.197Z,153.00
2023-01-28T11:27:34.326Z,152.50
2023-01-28T11:30:05.945Z,156.50
2023-01-28T11:32:35.504Z,152.57
2023-01-28T11:35:09.056Z,153.30
2023-01-28T11:37:38.591Z,149.10
2023-01-28T11:40:21.686Z,142.45
2023-01-28T11:45:30.192Z,148.40
2023-01-28T11:48:19.187Z,151.63
2023-01-28T11:50:59.451Z,146.10
2023-01-28T11:54:00.554Z,150.70
2023-01-28T11:56:48.649Z,150.02
2023-01-28T11:59:38.197Z,151.35
2023-01-28T12:02:25.517Z,152.10
2023-01-28T12:05:14.859Z,152.73
2023-01-28T12:07:51.898Z,149.70
2023-01-28T12:10:30.318Z,152.27
2023-01-28T12:13:12.453Z,152.50
2023-01-28T12:16:22.044Z,147.80
2023-01-28T12:19:10.635Z,150.73
2023-01-28T12:22:04.134Z,155.75
2023-01-28T12:25:06.970Z,165.48
2023-01-28T12:27:48.406Z,168.52
2023-01-28T12:30:29.790Z,165.48
2023-01-28T12:33:17.616Z,174.48
2023-01-28T12:36:02.687Z,174.57
2023-01-28T12:38:45.867Z,167.85
2023-01-28T12:41:20.369Z,162.77
2023-01-28T12:43:58.296Z,173.77
2023-01-28T12:46:50.891Z,176.52
2023-01-28T12:52:06.737Z,180.15
2023-01-28T12:54:43.992Z,179.48
2023-01-28T12:57:21.551Z,180.20
2023-01-28T12:59:54.699Z,174.35
2023-01-28T13:02:31.520Z,165.63
2023-01-28T13:05:10.219Z,164.05
2023-01-28T13:07:45.134Z,168.68
2023-01-28T13:10:25.034Z,165.88
2023-01-28T13:12:55.314Z,158.75
2023-01-28T13:15:23.910Z,159.90
2023-01-28T13:17:58.336Z,163.35
2023-01-28T13:20:40.175Z,168.23
2023-01-28T13:23:24.625Z,168.45
2023-01-28T13:25:57.693Z,171.60
2023-01-28T13:28:31.859Z,169.10
2023-01-28T13:31:07.195Z,169.40
2023-01-28T13:33:38.428Z,170.02
2023-01-28T13:36:23.603Z,169.15
2023-01-28T13:39:03.804Z,168.27
2023-01-28T13:41:44.499Z,168.13
2023-01-28T13:44:21.881Z,162.88
2023-01-28T13:46:51.818Z,163.77
2023-01-28T13:49:28.197Z,167.03
2023-01-28T13:52:10.014Z,163.63
2023-01-28T13:54:45.003Z,164.48
2023-01-28T13:58:11.968Z,170.05
2023-01-28T14:01:06.732Z,170.38
2023-01-28T14:04:18.569Z,168.07
2023-01-28T14:07:17.411Z,167.83
2023-01-28T14:10:16.862Z,167.13
2023-01-28T14:13:24.787Z,169.98
2023-01-28T14:16:07.928Z,170.23
2023-01-28T14:18:42.792Z,162.07
2023-01-28T14:21:16.350Z,152.50
2023-01-28T14:23:49.280Z,148.50
2023-01-28T14:26:35.856Z,145.43
2023-01-28T14:29:19.757Z,149.02
2023-01-28T14:31:50.657Z,148.20
2023-01-28T14:34:27.300Z,147.65
2023-01-28T14:37:03.271Z,150.77
2023-01-28T14:39:34.038Z,147.63
2023-01-28T14:42:05.410Z,149.75
2023-01-28T14:44:41.086Z,143.90
2023-01-28T14:47:34.261Z,149.10
2023-01-28T14:50:24.905Z,145.32
2023-01-28T14:53:24.251Z,140.57
2023-01-28T14:56:01.746Z,138.15
2023-01-28T14:58:35.900Z,137.63
2023-01-28T15:01:08.982Z,143.98
2023-01-28T15:03:46.003Z,139.73
2023-01-28T15:06:18.132Z,133.73
2023-01-28T15:08:47.935Z,142.43
2023-01-28T15:11:23.404Z,143.65
2023-01-28T15:13:58.958Z,136.82
2023-01-28T15:16:31.602Z,137.80
2023-01-28T15:19:02.699Z,133.35
2023-01-28T15:21:32.894Z,131.65
2023-01-28T15:24:03.283Z,120.43
2023-01-28T15:26:34.744Z,127.88
2023-01-28T15:29:04.680Z,125.70
2023-01-28T15:31:40.000Z,129.88
2023-01-28T15:34:15.415Z,124.38
2023-01-28T15:36:48.837Z,121.18
2023-01-28T15:41:51.215Z,129.75
2023-01-28T15:44:29.304Z,125.20
2023-01-28T15:47:00.796Z,130.80
2023-01-28T15:49:36.808Z,130.90
2023-01-28T15:52:05.503Z,128.63
2023-01-28T15:54:39.473Z,127.50
2023-01-28T15:57:19.886Z,122.60
2023-01-28T15:59:51.346Z,122.15
2023-01-28T16:02:25.831Z,126.63
2023-01-28T16:05:00.425Z,119.30
2023-01-28T16:07:32.237Z,124.10
2023-01-28T16:10:03.372Z,126.60
2023-01-28T16:12:31.952Z,127.90
2023-01-28T16:15:02.181Z,120.40
2023-01-28T16:17:39.774Z,119.20
2023-01-28T16:20:20.445Z,121.93
2023-01-28T16:22:50.096Z,123.28
2023-01-28T16:25:30.408Z,120.38
2023-01-28T16:28:01.625Z,128.10
2023-01-28T16:30:30.888Z,119.63
2023-01-28T16:33:03.013Z,120.88
2023-01-28T16:35:56.374Z,120.43
2023-01-28T16:38:20.481Z,118.97
2023-01-28T16:40:50.207Z,119.13
2023-01-28T16:43:20.077Z,117.50
2023-01-28T16:45:49.713Z,117.00
2023-01-28T16:48:21.817Z,117.63
2023-01-28T16:50:51.131Z,117.40
2023-01-28T16:53:22.903Z,116.80
2023-01-28T16:55:52.313Z,118.32
2023-01-28T16:58:27.407Z,116.43
2023-01-28T17:00:56.345Z,117.05
2023-01-28T17:03:26.188Z,116.95
2023-01-28T17:05:55.889Z,117.55
2023-01-28T17:08:25.271Z,116.20
2023-01-28T17:10:55.973Z,116.20
2023-01-28T17:13:25.714Z,114.80
2023-01-28T17:15:54.507Z,116.47
2023-01-28T17:18:27.133Z,114.45
2023-01-28T17:20:55.402Z,115.38
2023-01-28T17:23:24.226Z,114.55
2023-01-28T17:25:52.690Z,115.03
2023-01-28T17:28:23.691Z,113.30
2023-01-28T17:30:52.966Z,114.50
2023-01-28T17:33:21.054Z,113.18
2023-01-28T17:35:52.068Z,113.85
2023-01-28T17:38:20.257Z,113.15
2023-01-28T17:40:48.653Z,111.72
2023-01-28T17:43:18.287Z,112.05
2023-01-28T17:45:48.010Z,111.30
2023-01-28T17:48:17.665Z,112.65
2023-01-28T17:50:46.139Z,110.25
2023-01-28T17:53:18.370Z,110.35
2023-01-28T17:55:47.059Z,110.45
2023-01-28T17:58:17.894Z,109.68
2023-01-28T18:00:46.243Z,109.38
2023-01-28T18:03:16.316Z,110.25
2023-01-28T18:05:45.619Z,110.13
2023-01-28T18:08:15.021Z,109.75
2023-01-28T18:10:46.248Z,110.40
2023-01-28T18:13:17.116Z,110.13
2023-01-28T18:15:45.638Z,108.97
2023-01-28T18:18:14.985Z,108.72
2023-01-28T18:20:44.290Z,109.47
2023-01-28T18:23:14.826Z,109.13
2023-01-28T18:25:42.987Z,108.40
2023-01-28T18:28:13.646Z,109.35
2023-01-28T18:30:42.136Z,108.30
2023-01-28T18:33:11.517Z,108.03
2023-01-28T18:35:43.485Z,108.40
2023-01-28T18:38:12.115Z,107.55
2023-01-28T18:40:44.818Z,106.30
2023-01-28T18:43:16.542Z,106.80
2023-01-28T18:45:49.444Z,107.13
2023-01-28T18:48:21.641Z,106.57
2023-01-28T18:50:53.926Z,106.63
2023-01-28T18:53:26.860Z,107.47
2023-01-28T18:55:55.217Z,108.80
2023-01-28T18:58:24.621Z,109.25
2023-01-28T19:00:54.216Z,109.68
2023-01-28T19:03:23.716Z,107.20
2023-01-28T19:05:52.646Z,110.40
2023-01-28T19:08:22.299Z,107.25
2023-01-28T19:10:56.843Z,107.20
2023-01-28T19:13:29.831Z,106.60
2023-01-28T19:16:01.970Z,106.55
2023-01-28T19:18:32.919Z,105.85
2023-01-28T19:21:07.141Z,107.35
2023-01-28T19:23:49.147Z,107.18
2023-01-28T19:26:21.415Z,108.30
2023-01-28T19:28:52.651Z,106.95
2023-01-28T19:31:24.187Z,107.00
2023-01-28T19:33:56.664Z,106.85
2023-01-28T19:36:27.619Z,105.97
2023-01-28T19:38:59.991Z,106.90
2023-01-28T19:41:30.092Z,106.72
2023-01-28T19:44:02.223Z,107.15
2023-01-28T19:49:00.640Z,107.20
2023-01-28T19:51:30.082Z,107.68
2023-01-28T19:53:59.853Z,107.88
2023-01-28T19:56:30.566Z,108.10
2023-01-28T19:59:02.475Z,107.18
2023-01-28T20:01:30.844Z,107.43
2023-01-28T20:04:01.063Z,110.65
2023-01-28T20:06:31.345Z,110.57
2023-01-28T20:09:04.678Z,110.63
2023-01-28T20:11:33.043Z,110.38
2023-01-28T20:14:05.352Z,110.68
2023-01-28T20:16:35.797Z,110.47
2023-01-28T20:19:07.208Z,108.10
2023-01-28T20:21:37.031Z,107.72
2023-01-28T20:24:06.617Z,107.43
2023-01-28T20:26:38.853Z,107.13
2023-01-28T20:31:40.813Z,106.97
2023-01-28T20:34:14.754Z,111.18
2023-01-28T20:36:44.749Z,110.85
2023-01-28T20:39:14.892Z,114.00
2023-01-28T20:41:43.014Z,114.60
2023-01-28T20:44:14.871Z,114.88
2023-01-28T20:46:44.242Z,117.78
2023-01-28T20:49:13.596Z,117.35
2023-01-28T20:51:42.895Z,116.63
2023-01-28T20:54:13.620Z,113.28
2023-01-28T20:56:42.200Z,113.63
2023-01-28T20:59:13.895Z,113.32
2023-01-28T21:01:42.190Z,113.30
2023-01-28T21:04:12.782Z,113.82
2023-01-28T21:06:40.904Z,114.47
2023-01-28T21:09:10.446Z,115.43
2023-01-28T21:11:38.544Z,112.00
2023-01-28T21:14:07.874Z,112.05
2023-01-28T21:16:42.188Z,111.55
2023-01-28T21:19:11.559Z,110.50
2023-01-28T21:21:42.593Z,121.07
2023-01-28T21:24:12.295Z,118.47
2023-01-28T21:26:40.622Z,120.20
2023-01-28T21:29:11.081Z,121.25
2023-01-28T21:31:40.569Z,122.55
2023-01-28T21:34:09.978Z,124.22
2023-01-28T21:36:39.256Z,122.90
2023-01-28T21:39:09.817Z,124.82
2023-01-28T21:41:38.052Z,123.72
2023-01-28T21:44:07.709Z,123.22
2023-01-28T21:46:36.232Z,122.68
2023-01-28T21:49:08.317Z,123.55
2023-01-28T21:51:39.551Z,123.30
2023-01-28T21:54:12.619Z,123.07
2023-01-28T21:56:40.854Z,122.65
2023-01-28T21:59:29.123Z,123.80
2023-01-28T22:02:00.540Z,122.82
2023-01-28T22:04:34.112Z,126.25
2023-01-28T22:07:04.344Z,128.65
2023-01-28T22:09:35.935Z,132.48
2023-01-28T22:12:08.222Z,132.15
2023-01-28T22:14:40.341Z,126.65
2023-01-28T22:17:11.778Z,123.05
2023-01-28T22:19:47.804Z,121.18
2023-01-28T22:22:16.563Z,116.22
2023-01-28T22:24:46.166Z,116.45
2023-01-28T22:27:15.472Z,116.35
2023-01-28T22:29:43.595Z,117.30
2023-01-28T22:32:11.648Z,116.38
2023-01-28T22:34:45.498Z,115.65
2023-01-28T22:37:15.146Z,115.82
2023-01-28T22:39:43.231Z,115.88
2023-01-28T22:42:11.340Z,116.50
2023-01-28T22:44:39.503Z,116.10
2023-01-28T22:47:09.169Z,117.15
2023-01-28T22:49:38.488Z,116.70
2023-01-28T22:52:07.990Z,116.25
2023-01-28T22:54:37.724Z,117.15
2023-01-28T22:57:07.911Z,117.95
2023-01-28T22:59:38.108Z,117.15
2023-01-28T23:02:07.459Z,119.60
2023-01-28T23:04:36.939Z,116.30
2023-01-28T23:07:05.340Z,118.15
2023-01-28T23:09:37.219Z,119.53
2023-01-28T23:12:07.730Z,124.75
2023-01-28T23:14:53.853Z,118.80
2023-01-28T23:17:39.739Z,116.55
2023-01-28T23:20:31.216Z,117.22
2023-01-28T23:23:19.615Z,122.00
2023-01-28T23:25:50.301Z,117.32
2023-01-28T23:28:20.800Z,117.35
2023-01-28T23:30:50.164Z,129.98
2023-01-28T23:33:19.563Z,126.57
2023-01-28T23:35:48.028Z,130.10
2023-01-28T23:38:17.369Z,129.80
2023-01-28T23:40:47.001Z,127.72
2023-01-28T23:43:18.820Z,126.45
2023-01-28T23:45:47.390Z,129.80
2023-01-28T23:48:17.156Z,128.15
2023-01-28T23:50:46.470Z,123.28
2023-01-28T23:53:14.921Z,118.78
2023-01-28T23:55:44.272Z,117.90
2023-01-28T23:58:12.692Z,118.13
